createdAt,value
2018-11-26T00:00:27.761Z,5.47
2018-11-26T00:01:08.312Z,5.5
2018-11-26T00:01:48.872Z,5.51
2018-11-26T00:02:29.421Z,5.51
2018-11-26T00:03:09.989Z,5.44
2018-11-26T00:03:50.541Z,5.47
2018-11-26T00:04:31.098Z,5.38
2018-11-26T00:05:11.651Z,5.39
2018-11-26T00:05:52.215Z,5.48
2018-11-26T00:06:32.771Z,5.5
2018-11-26T00:07:13.348Z,5.38
2018-11-26T00:07:53.902Z,5.39
2018-11-26T00:08:34.465Z,5.47
2018-11-26T00:09:15.059Z,5.44
2018-11-26T00:09:55.631Z,5.41
2018-11-26T00:10:36.191Z,5.35
2018-11-26T00:11:16.748Z,5.44
2018-11-26T00:11:57.301Z,5.46
2018-11-26T00:12:37.883Z,5.36
2018-11-26T00:13:18.452Z,5.46
2018-11-26T00:13:58.999Z,5.5
2018-11-26T00:14:39.568Z,5.48
2018-11-26T00:15:20.124Z,5.5
2018-11-26T00:16:00.686Z,5.32
2018-11-26T00:16:41.247Z,5.38
2018-11-26T00:17:21.805Z,5.43
2018-11-26T00:18:02.349Z,5.33
2018-11-26T00:18:42.906Z,5.32
2018-11-26T00:19:23.465Z,5.35
2018-11-26T00:20:04.027Z,5.33
2018-11-26T00:20:44.583Z,5.32
2018-11-26T00:21:25.145Z,5.33
2018-11-26T00:22:05.707Z,5.26
2018-11-26T00:22:46.259Z,5.28
2018-11-26T00:23:26.827Z,5.23
2018-11-26T00:24:07.381Z,5.23
2018-11-26T00:24:47.947Z,5.25
2018-11-26T00:25:28.507Z,5.26
2018-11-26T00:26:09.065Z,5.25
2018-11-26T00:26:49.621Z,5.26
2018-11-26T00:27:30.178Z,5.21
2018-11-26T00:28:10.737Z,5.23
2018-11-26T00:28:51.307Z,5.2
2018-11-26T00:29:31.866Z,5.12
2018-11-26T00:30:12.421Z,5.21
2018-11-26T00:30:53.001Z,5.2
2018-11-26T00:31:33.569Z,5.26
2018-11-26T00:32:14.127Z,5.18
2018-11-26T00:32:54.695Z,5.15
2018-11-26T00:33:35.249Z,5.15
2018-11-26T00:34:15.812Z,5.08
2018-11-26T00:34:56.382Z,5.17
2018-11-26T00:35:36.979Z,5.07
2018-11-26T00:36:17.551Z,5.07
2018-11-26T00:36:58.119Z,5.07
2018-11-26T00:37:38.668Z,4.99
2018-11-26T00:38:19.228Z,5.04
2018-11-26T00:38:59.797Z,5
2018-11-26T00:39:40.370Z,4.96
2018-11-26T00:40:20.964Z,5.05
2018-11-26T00:41:01.502Z,5.02
2018-11-26T00:41:42.082Z,5.04
2018-11-26T00:42:22.639Z,4.92
2018-11-26T00:43:03.192Z,5.07
2018-11-26T00:43:43.742Z,4.94
2018-11-26T00:44:24.294Z,5.02
2018-11-26T00:45:04.863Z,4.9
2018-11-26T00:45:45.420Z,4.94
2018-11-26T00:46:25.984Z,4.97
2018-11-26T00:47:06.542Z,4.99
2018-11-26T00:47:47.097Z,4.96
2018-11-26T00:48:27.662Z,4.99
2018-11-26T00:49:08.254Z,4.96
2018-11-26T00:49:48.806Z,4.94
2018-11-26T00:50:29.365Z,4.87
2018-11-26T00:51:09.935Z,4.93
2018-11-26T00:51:50.502Z,4.87
2018-11-26T00:52:31.057Z,4.92
2018-11-26T00:53:11.608Z,4.92
2018-11-26T00:53:52.167Z,4.77
2018-11-26T00:54:32.738Z,4.77
2018-11-26T00:55:13.297Z,4.77
2018-11-26T00:55:53.844Z,4.78
2018-11-26T00:56:34.397Z,4.77
2018-11-26T00:57:14.954Z,4.78
2018-11-26T00:57:55.533Z,4.75
2018-11-26T00:58:36.096Z,4.78
2018-11-26T00:59:16.651Z,4.73
2018-11-26T00:59:57.214Z,4.78
2018-11-26T01:00:37.780Z,4.77
2018-11-26T01:01:18.337Z,4.75
2018-11-26T01:01:58.899Z,4.78
2018-11-26T01:02:39.480Z,4.7
2018-11-26T01:03:20.031Z,4.74
2018-11-26T01:04:00.598Z,4.73
2018-11-26T01:04:41.163Z,4.73
2018-11-26T01:05:21.737Z,4.74
2018-11-26T01:06:02.289Z,4.71
2018-11-26T05:21:26.525Z,4.3
2018-11-26T05:22:07.077Z,4.22
2018-11-26T05:22:47.637Z,4.23
2018-11-26T05:23:28.264Z,4.22
2018-11-26T05:24:09.090Z,4.24
2018-11-26T05:24:49.380Z,4.2
2018-11-26T05:25:29.943Z,4.26
2018-11-26T05:26:10.497Z,4.24
2018-11-26T05:26:51.051Z,4.19
2018-11-26T05:27:31.599Z,4.22
2018-11-26T05:28:12.160Z,4.19
2018-11-26T05:28:52.710Z,4.19
2018-11-26T05:29:33.264Z,4.23
2018-11-26T05:30:13.806Z,4.16
2018-11-26T05:30:54.376Z,4.16
2018-11-26T05:31:34.939Z,4.19
2018-11-26T05:32:15.487Z,4.17
2018-11-26T05:32:56.039Z,4.2
2018-11-26T05:33:36.596Z,4.16
2018-11-26T05:34:17.159Z,4.2
2018-11-26T05:34:57.704Z,4.14
2018-11-26T05:35:38.263Z,4.22
2018-11-26T05:36:19.052Z,4.19
2018-11-26T05:36:59.371Z,4.23
2018-11-26T05:37:41.270Z,4.26
2018-11-26T05:38:23.669Z,4.23
2018-11-26T05:39:04.284Z,4.23
2018-11-26T05:39:44.845Z,4.19
2018-11-26T05:40:26.641Z,4.14
2018-11-26T05:41:07.198Z,4.24
2018-11-26T05:41:47.753Z,4.23
2018-11-26T05:42:28.728Z,4.16
2018-11-26T05:43:08.895Z,4.22
2018-11-26T05:43:49.477Z,4.19
2018-11-26T05:44:31.446Z,4.06
2018-11-26T05:45:11.999Z,4.13
2018-11-26T05:45:52.612Z,4.06
2018-11-26T05:46:33.179Z,4.08
2018-11-26T05:47:13.725Z,4.12
2018-11-26T05:47:54.300Z,4.05
2018-11-26T05:48:34.916Z,4.12
2018-11-26T05:49:15.473Z,4.13
2018-11-26T05:49:56.032Z,4.08
2018-11-26T05:50:36.596Z,4.06
2018-11-26T05:51:17.276Z,4.05
2018-11-26T05:51:57.964Z,4.13
2018-11-26T05:52:39.296Z,4.08
2018-11-26T05:53:19.864Z,4.16
2018-11-26T05:54:00.426Z,4.12
2018-11-26T05:54:40.984Z,4.16
2018-11-26T05:55:21.538Z,4.1
2018-11-26T05:56:02.116Z,4.06
2018-11-26T05:56:42.670Z,4.17
2018-11-26T05:57:23.233Z,4.04
2018-11-26T05:58:03.976Z,4.08
2018-11-26T05:58:44.489Z,4.13
2018-11-26T05:59:25.073Z,4.13
2018-11-26T06:00:05.689Z,4.14
2018-11-26T06:00:46.254Z,4.1
2018-11-26T06:01:26.810Z,4.12
2018-11-26T06:02:07.371Z,4.05
2018-11-26T06:02:47.937Z,4.17
2018-11-26T06:03:28.488Z,4.1
2018-11-26T06:04:09.044Z,4.17
2018-11-26T06:04:49.612Z,4.23
2018-11-26T06:05:30.170Z,4.12
2018-11-26T06:06:10.736Z,4.14
2018-11-26T06:06:51.294Z,4.08
2018-11-26T06:07:31.862Z,4.16
2018-11-26T06:08:12.421Z,4.2
2018-11-26T06:08:52.985Z,4.17
2018-11-26T06:09:33.539Z,4.19
2018-11-26T06:10:14.103Z,4.16
2018-11-26T06:10:54.651Z,4.23
2018-11-26T06:11:35.198Z,4.23
2018-11-26T06:12:15.765Z,4.13
2018-11-26T06:12:56.325Z,4.17
2018-11-26T06:13:36.888Z,4.17
2018-11-26T06:14:17.444Z,4.2
2018-11-26T06:14:58.009Z,4.16
2018-11-26T06:15:38.582Z,4.22
2018-11-26T06:16:19.138Z,4.22
2018-11-26T06:16:59.694Z,4.16
2018-11-26T06:17:40.253Z,4.14
2018-11-26T06:18:20.807Z,4.22
2018-11-26T06:19:01.366Z,4.2
2018-11-26T06:19:41.951Z,4.28
2018-11-26T06:20:22.508Z,4.28
2018-11-26T06:21:03.064Z,4.28
2018-11-26T06:21:43.625Z,4.22
2018-11-26T06:22:24.178Z,4.26
2018-11-26T06:23:04.738Z,4.24
2018-11-26T06:23:45.293Z,4.22
2018-11-26T06:24:25.857Z,4.26
2018-11-26T06:25:06.413Z,4.26
2018-11-26T06:25:46.969Z,4.45
2018-11-26T06:26:27.534Z,4.63
2018-11-26T06:27:08.102Z,4.96
2018-11-26T06:27:48.683Z,5.23
2018-11-26T06:28:29.233Z,5.56
2018-11-26T06:29:09.802Z,5.83
2018-11-26T06:29:50.372Z,6.12
2018-11-26T06:30:30.929Z,6.42
2018-11-26T06:31:11.493Z,6.57
2018-11-26T06:31:52.051Z,6.85
2018-11-26T06:32:32.626Z,6.97
2018-11-26T06:33:13.192Z,7.14
2018-11-26T06:33:53.761Z,7.29
2018-11-26T06:34:34.328Z,7.35
2018-11-26T06:35:14.876Z,7.42
2018-11-26T06:35:55.442Z,7.66
2018-11-26T06:36:36.058Z,7.63
2018-11-26T06:37:16.614Z,7.72
2018-11-26T06:37:57.180Z,7.87
2018-11-26T06:38:37.736Z,7.94
2018-11-26T06:39:18.338Z,8.15
2018-11-26T06:39:58.904Z,8.26
2018-11-26T06:40:39.467Z,8.3
2018-11-26T06:41:20.011Z,8.38
2018-11-26T06:42:00.564Z,8.44
2018-11-26T06:42:41.152Z,8.48
2018-11-26T06:43:21.707Z,8.61
2018-11-26T06:44:02.307Z,8.66
2018-11-26T06:44:42.854Z,8.64
2018-11-26T06:45:23.408Z,8.49
2018-11-26T06:46:03.978Z,8.27
2018-11-26T06:46:44.535Z,8.13
2018-11-26T06:47:25.098Z,7.83
2018-11-26T06:48:05.654Z,7.53
2018-11-26T06:48:46.214Z,7.45
2018-11-26T06:49:26.791Z,7.2
2018-11-26T06:50:07.349Z,7.02
2018-11-26T06:50:47.915Z,6.87
2018-11-26T06:51:28.474Z,6.74
2018-11-26T06:52:09.052Z,6.63
2018-11-26T06:52:49.624Z,6.44
2018-11-26T06:53:30.176Z,6.27
2018-11-26T06:54:10.730Z,6.12
2018-11-26T06:54:51.282Z,6.04
2018-11-26T06:55:31.855Z,6.04
2018-11-26T06:56:12.414Z,5.89
2018-11-26T06:56:52.966Z,5.89
2018-11-26T06:57:33.527Z,5.8
2018-11-26T06:58:14.096Z,5.75
2018-11-26T06:58:54.650Z,5.69
2018-11-26T06:59:35.215Z,5.66
2018-11-26T07:00:15.764Z,5.59
2018-11-26T07:00:56.322Z,5.51
2018-11-26T07:01:36.872Z,5.51
2018-11-26T07:02:17.439Z,5.44
2018-11-26T07:02:57.998Z,5.36
2018-11-26T07:03:38.560Z,5.41
2018-11-26T07:04:19.119Z,5.41
2018-11-26T07:04:59.689Z,5.32
2018-11-26T07:05:40.245Z,5.33
2018-11-26T07:06:20.797Z,5.3
2018-11-26T07:07:01.346Z,5.32
2018-11-26T07:07:41.940Z,5.26
2018-11-26T07:08:22.494Z,5.29
2018-11-26T07:09:03.089Z,5.25
2018-11-26T07:09:43.643Z,5.23
2018-11-26T07:10:24.230Z,5.18
2018-11-26T07:11:04.790Z,5.12
2018-11-26T07:11:45.345Z,5.05
2018-11-26T07:12:25.904Z,5.05
2018-11-26T07:13:06.450Z,5.02
2018-11-26T07:13:47.016Z,5
2018-11-26T07:14:27.586Z,4.96
2018-11-26T07:15:08.150Z,4.94
2018-11-26T07:15:48.708Z,5.04
2018-11-26T07:16:29.267Z,4.94
2018-11-26T07:17:09.831Z,4.99
2018-11-26T07:17:50.389Z,4.93
2018-11-26T07:18:30.969Z,4.9
2018-11-26T07:19:11.566Z,4.96
2018-11-26T07:19:52.123Z,4.92
2018-11-26T07:20:32.685Z,4.94
2018-11-26T07:21:13.285Z,4.9
2018-11-26T07:21:53.859Z,4.94
2018-11-26T07:22:34.429Z,4.93
2018-11-26T07:23:14.981Z,4.84
2018-11-26T07:23:55.533Z,4.87
2018-11-26T07:24:36.112Z,4.94
2018-11-26T07:25:16.672Z,4.74
2018-11-26T07:25:57.231Z,4.8
2018-11-26T07:26:37.786Z,4.93
2018-11-26T07:27:18.349Z,4.92
2018-11-26T07:27:58.919Z,4.8
2018-11-26T07:28:39.477Z,4.93
2018-11-26T07:29:24.154Z,4.89
2018-11-26T07:30:00.599Z,4.73
2018-11-26T07:30:41.168Z,4.74
2018-11-26T07:31:21.715Z,4.75
2018-11-26T07:32:02.275Z,4.92
2018-11-26T07:32:42.837Z,4.74
2018-11-26T07:33:23.399Z,4.82
2018-11-26T07:34:04.009Z,4.75
2018-11-26T07:34:44.570Z,4.92
2018-11-26T07:35:25.388Z,4.92
2018-11-26T07:36:11.133Z,4.75
2018-11-26T07:36:46.480Z,4.78
2018-11-26T07:37:27.043Z,4.77
2018-11-26T07:38:07.639Z,4.8
2018-11-26T07:38:48.304Z,4.73
2018-11-26T07:39:28.861Z,4.73
2018-11-26T07:40:09.426Z,4.73
2018-11-26T07:40:50.001Z,4.74
2018-11-26T07:41:30.575Z,4.8
2018-11-26T07:42:11.157Z,4.75
2018-11-26T07:42:51.713Z,4.68
2018-11-26T07:43:32.274Z,4.74
2018-11-26T07:44:12.834Z,4.75
2018-11-26T07:44:53.415Z,4.68
2018-11-26T07:45:33.967Z,4.77
2018-11-26T07:46:14.529Z,4.74
2018-11-26T07:46:55.093Z,4.74
2018-11-26T07:47:35.648Z,4.74
2018-11-26T07:48:16.203Z,4.77
2018-11-26T07:48:56.941Z,4.73
2018-11-26T07:49:37.508Z,4.71
2018-11-26T07:50:18.067Z,4.71
2018-11-26T07:50:58.628Z,4.74
2018-11-26T07:51:39.186Z,4.62
2018-11-26T07:52:19.788Z,4.68
2018-11-26T07:53:00.381Z,4.66
2018-11-26T07:53:40.935Z,4.59
2018-11-26T07:54:21.497Z,4.62
2018-11-26T07:55:02.064Z,4.59
2018-11-26T07:55:42.624Z,4.66
2018-11-26T07:56:23.186Z,4.67
2018-11-26T07:57:03.777Z,4.68
2018-11-26T07:57:44.347Z,4.73
2018-11-26T07:58:24.900Z,4.68
2018-11-26T07:59:05.507Z,4.68
2018-11-26T07:59:46.027Z,4.74
2018-11-26T08:00:26.580Z,4.68
2018-11-26T08:01:07.136Z,4.73
2018-11-26T08:01:47.706Z,4.68
2018-11-26T08:02:28.282Z,4.74
2018-11-26T08:03:08.849Z,4.71
2018-11-26T08:03:49.404Z,4.73
2018-11-26T08:04:29.967Z,4.74
2018-11-26T08:05:10.535Z,4.73
2018-11-26T08:05:51.086Z,4.67
2018-11-26T08:06:31.650Z,4.73
2018-11-26T08:07:12.216Z,4.73
2018-11-26T08:07:52.775Z,4.68
2018-11-26T08:08:33.335Z,4.7
2018-11-26T08:09:13.886Z,4.71
2018-11-26T08:09:54.450Z,4.7
2018-11-26T08:10:35.003Z,4.7
2018-11-26T08:11:15.570Z,4.71
2018-11-26T08:11:56.135Z,4.7
2018-11-26T08:12:36.707Z,4.75
2018-11-26T08:13:17.263Z,4.74
2018-11-26T08:13:57.817Z,4.73
2018-11-26T08:14:38.374Z,4.71
2018-11-26T08:15:18.931Z,4.74
2018-11-26T08:15:59.496Z,4.77
2018-11-26T08:16:40.074Z,4.74
2018-11-26T08:17:20.632Z,4.74
2018-11-26T08:18:01.193Z,4.74
2018-11-26T08:18:41.751Z,4.73
2018-11-26T08:19:22.307Z,4.74
2018-11-26T08:20:02.870Z,4.71
2018-11-26T08:20:43.429Z,4.74
2018-11-26T08:21:23.995Z,4.74
2018-11-26T08:22:04.555Z,4.73
2018-11-26T08:22:45.108Z,4.7
2018-11-26T08:23:25.670Z,4.71
2018-11-26T08:24:06.231Z,4.71
2018-11-26T08:24:46.832Z,4.75
2018-11-26T08:25:27.382Z,4.74
2018-11-26T08:26:07.939Z,4.86
2018-11-26T08:26:48.513Z,4.71
2018-11-26T08:27:29.080Z,4.74
2018-11-26T08:28:09.633Z,4.77
2018-11-26T08:28:50.193Z,4.71
2018-11-26T08:29:30.750Z,4.75
2018-11-26T08:30:11.340Z,4.78
2018-11-26T08:30:51.900Z,4.73
2018-11-26T08:31:32.465Z,4.77
2018-11-26T08:32:13.030Z,4.74
2018-11-26T08:34:25.958Z,4.71
2018-11-26T08:35:06.533Z,4.71
2018-11-26T08:35:47.091Z,4.71
2018-11-26T08:36:27.669Z,4.73
2018-11-26T08:37:08.397Z,4.73
2018-11-26T08:37:48.956Z,4.73
2018-11-26T08:38:29.519Z,4.75
2018-11-26T08:39:10.092Z,4.74
2018-11-26T08:39:50.641Z,4.74
2018-11-26T08:40:31.274Z,4.77
2018-11-26T08:41:11.789Z,4.77
2018-11-26T08:41:52.355Z,4.75
2018-11-26T08:42:32.909Z,4.68
2018-11-26T08:43:13.495Z,4.7
2018-11-26T08:43:54.047Z,4.68
2018-11-26T08:44:34.653Z,4.7
2018-11-26T08:45:15.301Z,4.67
2018-11-26T08:45:55.859Z,4.62
2018-11-26T08:46:36.555Z,4.63
2018-11-26T08:47:16.989Z,4.6
2018-11-26T08:47:57.549Z,4.68
2018-11-26T08:48:38.093Z,4.62
2018-11-26T08:49:18.661Z,4.71
2018-11-26T08:49:59.219Z,4.67
2018-11-26T08:50:39.784Z,4.53
2018-11-26T08:51:20.347Z,4.74
2018-11-26T08:52:00.902Z,4.66
2018-11-26T08:52:41.470Z,4.73
2018-11-26T08:53:22.030Z,4.74
2018-11-26T08:54:02.622Z,4.66
2018-11-26T08:54:43.202Z,4.63
2018-11-26T08:55:23.775Z,4.7
2018-11-26T08:56:04.330Z,4.63
2018-11-26T08:56:44.916Z,4.7
2018-11-26T08:57:25.481Z,4.7
2018-11-26T08:58:06.243Z,4.68
2018-11-26T08:58:46.805Z,4.74
2018-11-26T08:59:27.379Z,4.73
2018-11-26T09:00:08.101Z,4.74
2018-11-26T09:00:48.925Z,4.71
2018-11-26T09:01:29.553Z,4.71
2018-11-26T09:02:10.427Z,4.75
2018-11-26T09:02:51.009Z,4.75
2018-11-26T09:03:31.571Z,4.73
2018-11-26T09:04:12.116Z,4.74
2018-11-26T09:04:52.673Z,4.7
2018-11-26T09:05:33.228Z,4.74
2018-11-26T09:06:13.790Z,4.73
2018-11-26T09:06:54.342Z,4.74
2018-11-26T09:07:34.892Z,4.7
2018-11-26T09:08:15.448Z,4.73
2018-11-26T09:08:56.005Z,4.7
2018-11-26T09:09:36.619Z,4.71
2018-11-26T09:10:17.160Z,4.75
2018-11-26T09:10:57.735Z,4.71
2018-11-26T09:11:38.287Z,4.7
2018-11-26T09:12:18.872Z,4.71
2018-11-26T09:12:59.424Z,4.68
2018-11-26T09:13:39.970Z,4.73
2018-11-26T09:14:20.530Z,4.68
2018-11-26T09:15:01.135Z,4.73
2018-11-26T09:15:41.683Z,4.7
2018-11-26T09:16:22.239Z,4.7
2018-11-26T09:17:02.774Z,4.73
2018-11-26T09:17:43.333Z,4.68
2018-11-26T09:18:23.906Z,4.7
2018-11-26T09:19:04.478Z,4.67
2018-11-26T09:19:45.040Z,4.73
2018-11-26T09:20:25.612Z,4.68
2018-11-26T09:21:06.167Z,4.67
2018-11-26T09:21:46.742Z,4.68
2018-11-26T09:22:27.293Z,4.62
2018-11-26T09:23:07.853Z,4.68
2018-11-26T09:23:48.418Z,4.63
2018-11-26T09:24:28.973Z,4.68
2018-11-26T09:25:09.516Z,4.7
2018-11-26T09:25:50.068Z,4.68
2018-11-26T09:26:30.620Z,4.71
2018-11-26T09:27:11.180Z,4.62
2018-11-26T09:27:51.787Z,4.58
2018-11-26T09:28:32.344Z,4.73
2018-11-26T09:29:13.242Z,4.63
2018-11-26T09:29:53.469Z,4.59
2018-11-26T09:30:34.022Z,4.75
2018-11-26T09:31:14.572Z,4.67
2018-11-26T09:31:55.140Z,4.59
2018-11-26T09:32:35.696Z,4.6
2018-11-26T09:33:16.271Z,4.67
2018-11-26T09:33:56.835Z,4.67
2018-11-26T09:34:37.410Z,4.67
2018-11-26T09:35:17.967Z,4.66
2018-11-26T09:35:58.566Z,4.63
2018-11-26T09:36:39.203Z,4.7
2018-11-26T09:37:19.805Z,4.68
2018-11-26T09:38:00.371Z,4.7
2018-11-26T09:38:40.929Z,4.71
2018-11-26T09:39:21.480Z,4.75
2018-11-26T09:40:02.027Z,4.77
2018-11-26T09:40:42.577Z,4.74
2018-11-26T09:41:23.133Z,4.78
2018-11-26T09:42:03.694Z,4.75
2018-11-26T09:42:44.254Z,4.73
2018-11-26T09:43:24.831Z,4.77
2018-11-26T09:44:05.395Z,4.74
2018-11-26T09:44:45.964Z,4.82
2018-11-26T09:45:26.555Z,4.75
2018-11-26T09:46:07.120Z,4.78
2018-11-26T09:46:47.674Z,4.78
2018-11-26T09:47:28.249Z,4.78
2018-11-26T09:48:08.816Z,4.77
2018-11-26T09:48:49.378Z,4.8
2018-11-26T09:49:29.941Z,4.75
2018-11-26T09:50:10.499Z,4.75
2018-11-26T09:50:51.058Z,4.84
2018-11-26T09:51:31.606Z,4.87
2018-11-26T09:52:12.167Z,4.77
2018-11-26T09:52:52.736Z,4.84
2018-11-26T09:53:33.302Z,4.8
2018-11-26T09:54:13.888Z,4.77
2018-11-26T09:54:54.434Z,4.75
2018-11-26T09:55:34.987Z,4.75
2018-11-26T09:56:15.568Z,4.75
2018-11-26T09:56:56.126Z,4.78
2018-11-26T09:57:36.710Z,4.78
2018-11-26T09:58:17.288Z,4.84
2018-11-26T09:58:57.865Z,4.74
2018-11-26T09:59:38.434Z,4.89
2018-11-26T10:00:19.000Z,4.74
2018-11-26T10:00:59.556Z,4.75
2018-11-26T10:01:40.118Z,4.74
2018-11-26T10:02:20.690Z,4.82
2018-11-26T10:03:01.236Z,4.84
2018-11-26T10:03:41.815Z,4.9
2018-11-26T10:04:22.351Z,4.82
2018-11-26T10:05:03.014Z,4.75
2018-11-26T10:05:43.590Z,4.92
2018-11-26T10:06:24.170Z,4.87
2018-11-26T10:07:04.729Z,4.87
2018-11-26T10:07:45.295Z,4.94
2018-11-26T10:08:25.850Z,4.9
2018-11-26T10:09:06.412Z,4.93
2018-11-26T10:09:46.976Z,4.94
2018-11-26T10:10:27.769Z,4.97
2018-11-26T10:11:08.316Z,4.94
2018-11-26T10:11:48.876Z,4.94
2018-11-26T10:12:29.446Z,4.92
2018-11-26T10:13:10.009Z,4.9
2018-11-26T10:13:50.574Z,4.96
2018-11-26T10:14:31.125Z,4.93
2018-11-26T10:15:11.684Z,4.92
2018-11-26T10:15:52.259Z,4.92
2018-11-26T10:16:32.808Z,5
2018-11-26T10:17:13.372Z,4.94
2018-11-26T10:17:53.928Z,5.02
2018-11-26T10:18:34.499Z,5.07
2018-11-26T10:19:15.068Z,5.05
2018-11-26T10:19:55.625Z,5
2018-11-26T10:20:36.185Z,5.02
2018-11-26T10:21:16.731Z,5
2018-11-26T10:21:57.302Z,5.02
2018-11-26T10:22:37.861Z,5
2018-11-26T10:23:18.424Z,5.02
2018-11-26T10:23:58.987Z,4.97
2018-11-26T10:24:39.560Z,5.04
2018-11-26T10:25:20.144Z,5.04
2018-11-26T10:26:00.707Z,5
2018-11-26T10:26:41.300Z,4.96
2018-11-26T10:27:21.850Z,5.02
2018-11-26T10:28:02.456Z,5.05
2018-11-26T10:28:43.009Z,5.02
2018-11-26T10:29:23.554Z,5.07
2018-11-26T10:30:04.101Z,4.94
2018-11-26T10:30:44.660Z,4.94
2018-11-26T10:31:25.203Z,5
2018-11-26T10:32:05.764Z,5.05
2018-11-26T10:32:46.328Z,4.97
2018-11-26T10:33:26.916Z,4.99
2018-11-26T10:34:07.469Z,4.94
2018-11-26T10:34:48.034Z,4.93
2018-11-26T10:35:28.618Z,4.94
2018-11-26T10:36:09.237Z,4.97
2018-11-26T10:36:49.800Z,4.92
2018-11-26T10:37:30.376Z,5.02
2018-11-26T10:38:10.976Z,5.05
2018-11-26T10:38:51.566Z,5
2018-11-26T10:39:32.142Z,5
2018-11-26T10:40:12.691Z,4.99
2018-11-26T10:40:53.248Z,5.08
2018-11-26T10:41:33.835Z,5.11
2018-11-26T10:42:14.395Z,5.11
2018-11-26T10:42:54.951Z,5.02
2018-11-26T10:43:35.527Z,5.11
2018-11-26T10:44:16.097Z,5.08
2018-11-26T10:44:56.689Z,5.08
2018-11-26T10:45:37.251Z,5.1
2018-11-26T10:46:17.822Z,5.02
2018-11-26T10:46:58.387Z,5.02
2018-11-26T10:47:38.943Z,5.07
2018-11-26T10:48:19.499Z,5.11
2018-11-26T10:49:00.117Z,5.1
2018-11-26T10:49:40.681Z,5.15
2018-11-26T10:50:21.255Z,5.15
2018-11-26T10:51:01.820Z,5.14
2018-11-26T10:51:42.358Z,5.15
2018-11-26T10:52:22.960Z,5.04
2018-11-26T10:53:03.519Z,5.05
2018-11-26T10:53:44.074Z,5.05
2018-11-26T10:54:24.638Z,5.05
2018-11-26T10:55:05.211Z,5.05
2018-11-26T10:55:45.809Z,5.05
2018-11-26T10:56:26.363Z,5.04
2018-11-26T10:57:06.924Z,5.1
2018-11-26T10:57:47.574Z,5.05
2018-11-26T10:58:28.130Z,5.15
2018-11-26T10:59:08.687Z,5.18
2018-11-26T10:59:49.238Z,5.2
2018-11-26T11:00:29.791Z,5.17
2018-11-26T11:01:10.353Z,5.23
2018-11-26T11:01:50.925Z,5.15
2018-11-26T11:02:31.585Z,5.2
2018-11-26T11:03:12.157Z,5.15
2018-11-26T11:03:52.770Z,5.17
2018-11-26T11:04:33.367Z,5.21
2018-11-26T11:05:13.938Z,5.11
2018-11-26T11:05:54.502Z,5.2
2018-11-26T11:06:35.084Z,5.2
2018-11-26T11:07:15.904Z,5.2
2018-11-26T11:07:56.451Z,5.2
2018-11-26T11:08:37.018Z,5.14
2018-11-26T11:09:17.585Z,5.26
2018-11-26T11:09:58.165Z,5.17
2018-11-26T11:10:38.727Z,5.17
2018-11-26T11:11:23.297Z,5.29
2018-11-26T11:11:59.835Z,5.26
2018-11-26T11:12:40.393Z,5.23
2018-11-26T11:13:20.995Z,5.2
2018-11-26T11:14:01.551Z,5.29
2018-11-26T11:14:42.100Z,5.14
2018-11-26T11:15:22.662Z,5.2
2018-11-26T11:16:03.212Z,5.2
2018-11-26T11:16:43.759Z,5.18
2018-11-26T11:17:24.327Z,5.15
2018-11-26T11:18:04.897Z,5.17
2018-11-26T11:18:45.472Z,5.17
2018-11-26T11:19:26.057Z,5.12
2018-11-26T11:20:06.639Z,5.15
2018-11-26T11:20:47.190Z,5.2
2018-11-26T11:21:27.751Z,5.17
2018-11-26T11:22:08.310Z,5.21
2018-11-26T11:22:48.875Z,5.18
2018-11-26T11:23:29.435Z,5.2
2018-11-26T11:24:09.987Z,5.23
2018-11-26T11:24:50.546Z,5.28
2018-11-26T11:25:31.106Z,5.28
2018-11-26T11:26:11.671Z,5.29
2018-11-26T11:26:52.243Z,5.3
2018-11-26T11:27:32.812Z,5.23
2018-11-26T11:28:13.507Z,5.23
2018-11-26T11:28:54.173Z,5.26
2018-11-26T11:29:34.739Z,5.28
2018-11-26T11:30:15.302Z,5.23
2018-11-26T11:30:55.887Z,5.23
2018-11-26T11:31:36.457Z,5.26
2018-11-26T11:32:17.028Z,5.28
2018-11-26T11:32:57.611Z,5.29
2018-11-26T11:35:46.145Z,5.33
2018-11-26T11:36:26.731Z,5.35
2018-11-26T11:37:07.307Z,5.38
2018-11-26T11:37:47.862Z,5.41
2018-11-26T11:38:28.446Z,5.39
2018-11-26T11:39:09.008Z,5.41
2018-11-26T11:39:49.567Z,5.36
2018-11-26T11:40:30.128Z,5.29
2018-11-26T11:41:10.706Z,5.33
2018-11-26T11:41:51.287Z,5.3
2018-11-26T11:42:31.853Z,5.39
2018-11-26T11:43:12.410Z,5.44
2018-11-26T11:43:52.970Z,5.39
2018-11-26T11:44:33.533Z,5.28
2018-11-26T11:45:14.088Z,5.33
2018-11-26T11:45:54.640Z,5.43
2018-11-26T11:46:35.230Z,5.38
2018-11-26T11:47:15.860Z,5.36
2018-11-26T11:47:56.410Z,5.41
2018-11-26T11:48:36.983Z,5.39
2018-11-26T11:49:17.547Z,5.41
2018-11-26T11:49:58.095Z,5.36
2018-11-26T11:50:38.652Z,5.38
2018-11-26T11:51:19.213Z,5.32
2018-11-26T11:51:59.774Z,5.38
2018-11-26T11:52:40.329Z,5.35
2018-11-26T11:53:20.884Z,5.35
2018-11-26T11:54:01.440Z,5.33
2018-11-26T11:54:41.997Z,5.35
2018-11-26T11:55:22.553Z,5.39
2018-11-26T11:56:03.099Z,5.35
2018-11-26T11:56:43.662Z,5.35
2018-11-26T11:57:24.264Z,5.33
2018-11-26T11:58:04.826Z,5.3
2018-11-26T11:58:45.381Z,5.35
2018-11-26T11:59:25.967Z,5.33
2018-11-26T12:00:06.530Z,5.3
2018-11-26T12:00:47.081Z,5.38
2018-11-26T12:01:27.638Z,5.35
2018-11-26T12:02:08.203Z,5.36
2018-11-26T12:02:48.754Z,5.32
2018-11-26T12:03:29.305Z,5.32
2018-11-26T12:04:09.881Z,5.26
2018-11-26T12:04:50.860Z,5.33
2018-11-26T12:05:31.083Z,5.28
2018-11-26T12:06:11.640Z,5.2
2018-11-26T12:06:52.216Z,5.23
2018-11-26T12:07:32.794Z,5.26
2018-11-26T12:08:13.354Z,5.25
2018-11-26T12:08:53.922Z,5.26
2018-11-26T12:09:34.496Z,5.23
2018-11-26T12:10:15.050Z,5.23
2018-11-26T12:10:55.614Z,5.21
2018-11-26T12:11:36.185Z,5.29
2018-11-26T12:12:16.731Z,5.3
2018-11-26T12:12:57.296Z,5.3
2018-11-26T12:13:37.873Z,5.32
2018-11-26T12:14:18.437Z,5.29
2018-11-26T12:14:58.995Z,5.3
2018-11-26T12:15:39.556Z,5.35
2018-11-26T12:16:20.119Z,5.33
2018-11-26T12:17:00.668Z,5.3
2018-11-26T12:17:41.231Z,5.38
2018-11-26T12:18:21.801Z,5.35
2018-11-26T12:19:02.378Z,5.39
2018-11-26T12:19:42.935Z,5.41
2018-11-26T12:20:23.490Z,5.41
2018-11-26T12:21:04.042Z,5.3
2018-11-26T12:21:44.591Z,5.32
2018-11-26T12:22:25.229Z,5.36
2018-11-26T12:23:05.798Z,5.41
2018-11-26T12:23:46.350Z,5.44
2018-11-26T12:24:26.913Z,5.43
2018-11-26T12:25:07.476Z,5.43
2018-11-26T12:25:48.030Z,5.41
2018-11-26T12:26:28.586Z,5.43
2018-11-26T12:27:09.139Z,5.33
2018-11-26T12:27:49.701Z,5.35
2018-11-26T12:28:30.268Z,5.44
2018-11-26T12:29:10.845Z,5.39
2018-11-26T12:29:51.398Z,5.46
2018-11-26T12:30:31.970Z,5.38
2018-11-26T12:31:12.592Z,5.47
2018-11-26T12:31:53.152Z,5.32
2018-11-26T12:32:33.726Z,5.38
2018-11-26T12:33:14.298Z,5.46
2018-11-26T12:33:54.942Z,5.46
2018-11-26T12:34:35.505Z,5.36
2018-11-26T12:35:16.230Z,5.32
2018-11-26T12:35:56.885Z,5.36
2018-11-26T12:36:37.441Z,5.43
2018-11-26T12:37:18.007Z,5.38
2018-11-26T12:37:58.566Z,5.44
2018-11-26T12:38:39.118Z,5.44
2018-11-26T12:39:19.684Z,5.29
2018-11-26T12:40:00.257Z,5.36
2018-11-26T12:40:40.819Z,5.33
2018-11-26T12:41:21.385Z,5.33
2018-11-26T12:42:04.166Z,5.36
2018-11-26T12:42:42.501Z,5.3
2018-11-26T12:43:23.067Z,5.29
2018-11-26T12:44:03.616Z,5.29
2018-11-26T12:44:44.172Z,5.3
2018-11-26T12:45:24.733Z,5.26
2018-11-26T12:46:05.280Z,5.26
2018-11-26T12:46:45.996Z,5.29
2018-11-26T12:47:26.607Z,5.3
2018-11-26T12:48:07.166Z,5.29
2018-11-26T12:48:47.748Z,5.26
2018-11-26T12:49:28.703Z,5.26
2018-11-26T12:50:09.422Z,5.26
2018-11-26T12:50:50.199Z,5.26
2018-11-26T12:51:30.950Z,5.35
2018-11-26T12:52:11.513Z,5.3
2018-11-26T12:52:52.075Z,5.28
2018-11-26T12:53:32.630Z,5.29
2018-11-26T12:54:13.187Z,5.3
2018-11-26T12:54:53.750Z,5.23
2018-11-26T12:55:34.325Z,5.23
2018-11-26T12:56:14.887Z,5.3
2018-11-26T12:56:55.480Z,5.23
2018-11-26T12:57:36.049Z,5.3
2018-11-26T12:58:16.651Z,5.29
2018-11-26T12:58:57.218Z,5.28
2018-11-26T12:59:37.806Z,5.26
2018-11-26T13:00:18.392Z,5.28
2018-11-26T13:00:58.925Z,5.3
2018-11-26T13:01:39.477Z,5.26
2018-11-26T13:02:20.044Z,5.29
2018-11-26T13:03:00.605Z,5.3
2018-11-26T13:03:41.164Z,5.25
2018-11-26T13:04:21.722Z,5.3
2018-11-26T13:05:02.278Z,5.21
2018-11-26T13:05:42.828Z,5.28
2018-11-26T13:06:23.436Z,5.26
2018-11-26T13:07:04.017Z,5.23
2018-11-26T13:07:44.583Z,5.25
2018-11-26T13:08:25.193Z,5.3
2018-11-26T13:09:05.747Z,5.25
2018-11-26T13:09:46.307Z,5.26
2018-11-26T13:10:26.859Z,5.26
2018-11-26T13:11:07.426Z,5.25
2018-11-26T13:11:47.986Z,5.25
2018-11-26T13:12:28.549Z,5.25
2018-11-26T13:13:09.109Z,5.28
2018-11-26T13:13:49.670Z,5.21
2018-11-26T13:14:30.263Z,5.23
2018-11-26T13:15:10.828Z,5.26
2018-11-26T13:15:51.390Z,5.25
2018-11-26T13:16:31.951Z,5.2
2018-11-26T13:17:12.509Z,5.18
2018-11-26T13:17:53.068Z,5.28
2018-11-26T13:18:33.632Z,5.21
2018-11-26T13:19:14.194Z,5.26
2018-11-26T13:19:54.746Z,5.28
2018-11-26T13:20:35.299Z,5.25
2018-11-26T13:21:15.891Z,5.29